Mesa.AZweather.com - Mesa, AZ
   Red Mountain Frwy and University Dr., El 1518 ft.
       --- Monday  June 10, 2019 ---
 
 High Temperature ..  109F at 16:26
 Low Temperature ...  74F at 06:18
 
 High Humidity .....  27% at 23:37
 Low Humidity ......  11% at 10:03
 
 Rainfall Total ....  0.00 in.
 
 High Wind Speed ... ---
                     
 
 High Barometer ....  30.06 at 08:49
 Low Barometer .....  29.91 at 17:06
 
Dew Point    High .... 52   Low ..... 29
 
 
 Time   Temp  Humi  Rain     Baro  DewPt  Wind
00:00,  78F, 20%, 0.00 in, 29.94, 34F, ---
00:30,  77F, 22%, 0.00 in, 29.94, 35F, ---
01:00,  77F, 23%, 0.00 in, 29.95, 36F, ---
01:30,  76F, 24%, 0.00 in, 29.94, 36F, ---
02:00,  76F, 24%, 0.00 in, 29.94, 36F, ---
02:30,  76F, 23%, 0.00 in, 29.95, 35F, ---
03:00,  76F, 23%, 0.00 in, 29.96, 35F, ---
03:30,  77F, 19%, 0.00 in, 29.97, 32F, ---
04:00,  77F, 18%, 0.00 in, 29.98, 30F, ---
04:30,  79F, 17%, 0.00 in, 29.98, 30F, ---
05:00,  80F, 16%, 0.00 in, 29.98, 30F, ---
05:30,  78F, 16%, 0.00 in, 29.99, 29F, ---
06:00,  76F, 21%, 0.00 in, 29.99, 33F, ---
06:30,  74F, 23%, 0.00 in, 30.01, 33F, ---
07:00,  75F, 22%, 0.00 in, 30.02, 34F, ---
07:30,  81F, 18%, 0.00 in, 30.02, 33F, ---
08:00,  89F, 15%, 0.00 in, 30.05, 36F, ---
08:30,  92F, 14%, 0.00 in, 30.04, 36F, ---
09:00,  94F, 13%, 0.00 in, 30.05, 35F, ---
09:30,  96F, 14%, 0.00 in, 30.05, 40F, ---
10:00,  98F, 12%, 0.00 in, 30.06, 37F, ---
10:30,  99F, 13%, 0.00 in, 30.05, 39F, ---
11:00,  100F, 14%, 0.00 in, 30.04, 43F, ---
11:30,  102F, 15%, 0.00 in, 30.04, 46F, ---
12:00,  103F, 15%, 0.00 in, 30.03, 46F, ---
12:30,  104F, 14%, 0.00 in, 30.03, 45F, ---
13:00,  105F, 14%, 0.00 in, 30.01, 47F, ---
13:30,  105F, 14%, 0.00 in, 30.00, 47F, ---
14:00,  106F, 14%, 0.00 in, 29.98, 47F, ---
14:30,  106F, 13%, 0.00 in, 29.97, 45F, ---
15:00,  106F, 13%, 0.00 in, 29.96, 45F, ---
15:30,  107F, 12%, 0.00 in, 29.95, 44F, ---
16:00,  107F, 12%, 0.00 in, 29.94, 44F, ---
16:30,  109F, 12%, 0.00 in, 29.93, 45F, ---
17:00,  107F, 12%, 0.00 in, 29.92, 44F, ---
17:30,  107F, 12%, 0.00 in, 29.91, 44F, ---
18:00,  104F, 14%, 0.00 in, 29.91, 45F, ---
18:30,  105F, 14%, 0.00 in, 29.91, 47F, ---
19:00,  103F, 14%, 0.00 in, 29.92, 44F, ---
19:30,  100F, 18%, 0.00 in, 29.93, 49F, ---
20:00,  98F, 20%, 0.00 in, 29.94, 51F, ---
20:30,  96F, 20%, 0.00 in, 29.96, 49F, ---
21:00,  95F, 22%, 0.00 in, 29.98, 50F, ---
21:30,  94F, 23%, 0.00 in, 30.00, 50F, ---
22:00,  92F, 24%, 0.00 in, 30.01, 50F, ---
22:30,  92F, 25%, 0.00 in, 30.01, 51F, ---
23:00,  91F, 26%, 0.00 in, 30.01, 52F, ---
23:30,  90F, 26%, 0.00 in, 30.01, 50F, ---
23:59,  89F, 27%, 0.00 in, 30.01, 51F, ---